sensor_id;sensor_type;location;lat;lon;timestamp;P1;durP1;ratioP1;P2;durP2;ratioP2
41627;SDS011;27321;50.816;6.054;2022-09-29T00:16:41;2.33;;;2.13;;
41627;SDS011;27321;50.816;6.054;2022-09-29T00:19:42;2.77;;;1.83;;
41627;SDS011;27321;50.816;6.054;2022-09-29T00:22:43;2.50;;;2.30;;
41627;SDS011;27321;50.816;6.054;2022-09-29T00:25:44;2.87;;;2.57;;
41627;SDS011;27321;50.816;6.054;2022-09-29T00:28:56;3.20;;;2.53;;
41627;SDS011;27321;50.816;6.054;2022-09-29T00:31:59;2.70;;;2.50;;
41627;SDS011;27321;50.816;6.054;2022-09-29T00:35:00;3.17;;;2.35;;
41627;SDS011;27321;50.816;6.054;2022-09-29T00:38:01;2.40;;;2.20;;
41627;SDS011;27321;50.816;6.054;2022-09-29T00:41:02;2.63;;;2.43;;
41627;SDS011;27321;50.816;6.054;2022-09-29T00:47:15;2.27;;;2.07;;
41627;SDS011;27321;50.816;6.054;2022-09-29T00:50:20;2.53;;;2.33;;
41627;SDS011;27321;50.816;6.054;2022-09-29T00:53:40;2.67;;;2.47;;
41627;SDS011;27321;50.816;6.054;2022-09-29T00:56:42;4.67;;;2.73;;
41627;SDS011;27321;50.816;6.054;2022-09-29T01:03:07;2.53;;;2.33;;
41627;SDS011;27321;50.816;6.054;2022-09-29T01:06:14;2.33;;;2.00;;
41627;SDS011;27321;50.816;6.054;2022-09-29T01:09:28;2.60;;;2.13;;
41627;SDS011;27321;50.816;6.054;2022-09-29T01:12:33;3.03;;;2.67;;
41627;SDS011;27321;50.816;6.054;2022-09-29T01:15:35;3.42;;;2.75;;
41627;SDS011;27321;50.816;6.054;2022-09-29T01:18:36;3.08;;;2.53;;
41627;SDS011;27321;50.816;6.054;2022-09-29T01:21:49;3.67;;;2.72;;
41627;SDS011;27321;50.816;6.054;2022-09-29T01:29:07;3.97;;;3.10;;
41627;SDS011;27321;50.816;6.054;2022-09-29T01:35:36;3.37;;;2.57;;
41627;SDS011;27321;50.816;6.054;2022-09-29T01:39:18;3.00;;;2.70;;
41627;SDS011;27321;50.816;6.054;2022-09-29T01:42:32;3.00;;;2.70;;
41627;SDS011;27321;50.816;6.054;2022-09-29T01:45:43;3.30;;;3.00;;
41627;SDS011;27321;50.816;6.054;2022-09-29T01:48:54;3.50;;;3.20;;
41627;SDS011;27321;50.816;6.054;2022-09-29T01:52:05;2.93;;;2.73;;
41627;SDS011;27321;50.816;6.054;2022-09-29T01:55:17;4.00;;;2.87;;
41627;SDS011;27321;50.816;6.054;2022-09-29T01:58:29;3.17;;;2.83;;
41627;SDS011;27321;50.816;6.054;2022-09-29T02:01:39;4.13;;;3.00;;
41627;SDS011;27321;50.816;6.054;2022-09-29T02:04:44;3.00;;;2.70;;
41627;SDS011;27321;50.816;6.054;2022-09-29T02:08:07;4.00;;;2.90;;
41627;SDS011;27321;50.816;6.054;2022-09-29T02:11:25;3.20;;;2.90;;
41627;SDS011;27321;50.816;6.054;2022-09-29T02:14:28;3.08;;;2.67;;
41627;SDS011;27321;50.816;6.054;2022-09-29T02:17:38;3.30;;;3.00;;
41627;SDS011;27321;50.816;6.054;2022-09-29T02:20:42;2.77;;;2.57;;
41627;SDS011;27321;50.816;6.054;2022-09-29T02:23:45;3.23;;;2.93;;
41627;SDS011;27321;50.816;6.054;2022-09-29T02:26:46;3.63;;;3.00;;
41627;SDS011;27321;50.816;6.054;2022-09-29T02:29:48;2.65;;;2.35;;
41627;SDS011;27321;50.816;6.054;2022-09-29T02:32:50;4.27;;;2.97;;
41627;SDS011;27321;50.816;6.054;2022-09-29T02:36:00;4.30;;;2.83;;
41627;SDS011;27321;50.816;6.054;2022-09-29T02:57:32;3.03;;;2.70;;
41627;SDS011;27321;50.816;6.054;2022-09-29T03:00:50;3.10;;;2.80;;
41627;SDS011;27321;50.816;6.054;2022-09-29T03:03:53;3.07;;;2.67;;
41627;SDS011;27321;50.816;6.054;2022-09-29T03:06:54;3.70;;;2.87;;
41627;SDS011;27321;50.816;6.054;2022-09-29T03:09:55;3.55;;;2.60;;
41627;SDS011;27321;50.816;6.054;2022-09-29T03:12:56;3.67;;;2.53;;
41627;SDS011;27321;50.816;6.054;2022-09-29T03:15:57;5.43;;;3.03;;
41627;SDS011;27321;50.816;6.054;2022-09-29T03:18:58;3.10;;;2.80;;
41627;SDS011;27321;50.816;6.054;2022-09-29T03:21:58;3.83;;;3.00;;
41627;SDS011;27321;50.816;6.054;2022-09-29T03:24:59;3.22;;;2.60;;
41627;SDS011;27321;50.816;6.054;2022-09-29T03:28:04;3.97;;;3.20;;
41627;SDS011;27321;50.816;6.054;2022-09-29T03:31:08;4.03;;;3.57;;
41627;SDS011;27321;50.816;6.054;2022-09-29T03:34:10;3.43;;;2.93;;
41627;SDS011;27321;50.816;6.054;2022-09-29T03:37:11;3.53;;;3.23;;
41627;SDS011;27321;50.816;6.054;2022-09-29T03:40:12;3.63;;;3.10;;
41627;SDS011;27321;50.816;6.054;2022-09-29T03:43:13;3.03;;;2.73;;
41627;SDS011;27321;50.816;6.054;2022-09-29T03:46:14;3.53;;;3.23;;
41627;SDS011;27321;50.816;6.054;2022-09-29T03:49:14;3.17;;;2.87;;
41627;SDS011;27321;50.816;6.054;2022-09-29T03:52:15;3.60;;;2.80;;
41627;SDS011;27321;50.816;6.054;2022-09-29T03:55:16;3.03;;;2.70;;
41627;SDS011;27321;50.816;6.054;2022-09-29T03:58:18;3.00;;;2.70;;
41627;SDS011;27321;50.816;6.054;2022-09-29T04:01:19;3.65;;;2.90;;
41627;SDS011;27321;50.816;6.054;2022-09-29T04:04:20;3.55;;;2.85;;
41627;SDS011;27321;50.816;6.054;2022-09-29T04:07:21;3.08;;;2.80;;
41627;SDS011;27321;50.816;6.054;2022-09-29T04:10:22;2.97;;;2.70;;
41627;SDS011;27321;50.816;6.054;2022-09-29T04:13:23;3.08;;;2.78;;
41627;SDS011;27321;50.816;6.054;2022-09-29T04:16:24;3.77;;;3.27;;
41627;SDS011;27321;50.816;6.054;2022-09-29T04:19:25;3.28;;;2.75;;
41627;SDS011;27321;50.816;6.054;2022-09-29T04:22:26;3.13;;;2.83;;
41627;SDS011;27321;50.816;6.054;2022-09-29T04:25:27;2.57;;;2.37;;
41627;SDS011;27321;50.816;6.054;2022-09-29T04:28:31;3.80;;;3.40;;
41627;SDS011;27321;50.816;6.054;2022-09-29T04:31:34;3.97;;;3.00;;
41627;SDS011;27321;50.816;6.054;2022-09-29T04:34:35;2.83;;;2.50;;
41627;SDS011;27321;50.816;6.054;2022-09-29T04:37:36;3.45;;;2.58;;
41627;SDS011;27321;50.816;6.054;2022-09-29T04:40:37;3.50;;;2.73;;
41627;SDS011;27321;50.816;6.054;2022-09-29T04:43:38;5.53;;;3.10;;
41627;SDS011;27321;50.816;6.054;2022-09-29T04:46:39;3.70;;;2.83;;
41627;SDS011;27321;50.816;6.054;2022-09-29T04:49:40;3.30;;;3.00;;
41627;SDS011;27321;50.816;6.054;2022-09-29T04:52:41;4.20;;;2.73;;
41627;SDS011;27321;50.816;6.054;2022-09-29T04:55:43;4.73;;;3.37;;
41627;SDS011;27321;50.816;6.054;2022-09-29T04:58:44;3.50;;;3.10;;
41627;SDS011;27321;50.816;6.054;2022-09-29T05:01:45;3.70;;;3.00;;
41627;SDS011;27321;50.816;6.054;2022-09-29T05:04:48;4.37;;;3.47;;
41627;SDS011;27321;50.816;6.054;2022-09-29T05:07:49;3.03;;;2.73;;
41627;SDS011;27321;50.816;6.054;2022-09-29T05:10:50;3.10;;;2.80;;
41627;SDS011;27321;50.816;6.054;2022-09-29T05:13:51;3.72;;;3.20;;
41627;SDS011;27321;50.816;6.054;2022-09-29T05:16:53;4.33;;;3.00;;
41627;SDS011;27321;50.816;6.054;2022-09-29T05:19:55;3.20;;;2.90;;
41627;SDS011;27321;50.816;6.054;2022-09-29T05:22:56;5.13;;;3.45;;
41627;SDS011;27321;50.816;6.054;2022-09-29T05:26:03;3.80;;;3.17;;
41627;SDS011;27321;50.816;6.054;2022-09-29T05:29:06;4.50;;;3.00;;
41627;SDS011;27321;50.816;6.054;2022-09-29T05:32:07;4.78;;;3.65;;
41627;SDS011;27321;50.816;6.054;2022-09-29T05:35:08;4.90;;;3.20;;
41627;SDS011;27321;50.816;6.054;2022-09-29T05:38:09;3.47;;;3.17;;
41627;SDS011;27321;50.816;6.054;2022-09-29T05:41:10;4.30;;;3.37;;
41627;SDS011;27321;50.816;6.054;2022-09-29T05:44:21;3.70;;;3.30;;
41627;SDS011;27321;50.816;6.054;2022-09-29T05:47:22;4.10;;;3.23;;
41627;SDS011;27321;50.816;6.054;2022-09-29T05:50:23;3.87;;;3.50;;
41627;SDS011;27321;50.816;6.054;2022-09-29T05:53:24;3.47;;;3.17;;
41627;SDS011;27321;50.816;6.054;2022-09-29T05:56:26;4.15;;;3.45;;
41627;SDS011;27321;50.816;6.054;2022-09-29T05:59:27;3.95;;;3.47;;
41627;SDS011;27321;50.816;6.054;2022-09-29T06:02:28;4.18;;;3.22;;
41627;SDS011;27321;50.816;6.054;2022-09-29T06:05:29;3.17;;;2.83;;
41627;SDS011;27321;50.816;6.054;2022-09-29T06:08:30;5.67;;;3.70;;
41627;SDS011;27321;50.816;6.054;2022-09-29T06:11:31;5.18;;;3.58;;
41627;SDS011;27321;50.816;6.054;2022-09-29T06:14:32;4.22;;;3.58;;
41627;SDS011;27321;50.816;6.054;2022-09-29T06:17:33;5.07;;;3.70;;
41627;SDS011;27321;50.816;6.054;2022-09-29T06:20:34;7.63;;;3.90;;
41627;SDS011;27321;50.816;6.054;2022-09-29T06:23:37;3.37;;;3.07;;
41627;SDS011;27321;50.816;6.054;2022-09-29T06:26:39;4.47;;;3.53;;
41627;SDS011;27321;50.816;6.054;2022-09-29T06:29:39;4.13;;;3.70;;
41627;SDS011;27321;50.816;6.054;2022-09-29T06:32:40;4.50;;;3.70;;
41627;SDS011;27321;50.816;6.054;2022-09-29T06:35:45;4.27;;;3.87;;
41627;SDS011;27321;50.816;6.054;2022-09-29T06:39:07;4.83;;;4.00;;
41627;SDS011;27321;50.816;6.054;2022-09-29T06:42:10;4.43;;;3.93;;
41627;SDS011;27321;50.816;6.054;2022-09-29T06:45:14;5.10;;;4.17;;
41627;SDS011;27321;50.816;6.054;2022-09-29T06:48:15;5.10;;;4.00;;
41627;SDS011;27321;50.816;6.054;2022-09-29T06:51:16;4.97;;;4.10;;
41627;SDS011;27321;50.816;6.054;2022-09-29T06:54:21;7.50;;;4.30;;
41627;SDS011;27321;50.816;6.054;2022-09-29T06:57:24;5.70;;;3.97;;
41627;SDS011;27321;50.816;6.054;2022-09-29T07:00:26;6.20;;;4.35;;
41627;SDS011;27321;50.816;6.054;2022-09-29T07:03:27;4.30;;;3.72;;
41627;SDS011;27321;50.816;6.054;2022-09-29T07:06:30;4.30;;;3.77;;
41627;SDS011;27321;50.816;6.054;2022-09-29T07:09:31;4.53;;;3.63;;
41627;SDS011;27321;50.816;6.054;2022-09-29T07:12:32;4.10;;;3.70;;
41627;SDS011;27321;50.816;6.054;2022-09-29T07:15:33;3.88;;;3.47;;
41627;SDS011;27321;50.816;6.054;2022-09-29T07:18:35;4.18;;;3.22;;
41627;SDS011;27321;50.816;6.054;2022-09-29T07:21:38;4.33;;;3.93;;
41627;SDS011;27321;50.816;6.054;2022-09-29T07:24:39;4.97;;;4.17;;
41627;SDS011;27321;50.816;6.054;2022-09-29T07:27:42;6.10;;;4.70;;
41627;SDS011;27321;50.816;6.054;2022-09-29T07:30:43;6.93;;;4.30;;
41627;SDS011;27321;50.816;6.054;2022-09-29T07:33:45;7.80;;;4.93;;
41627;SDS011;27321;50.816;6.054;2022-09-29T07:36:47;6.13;;;4.83;;
41627;SDS011;27321;50.816;6.054;2022-09-29T07:39:49;7.05;;;4.88;;
41627;SDS011;27321;50.816;6.054;2022-09-29T07:42:51;7.25;;;5.15;;
41627;SDS011;27321;50.816;6.054;2022-09-29T07:45:51;8.97;;;5.60;;
41627;SDS011;27321;50.816;6.054;2022-09-29T07:48:52;6.90;;;5.10;;
41627;SDS011;27321;50.816;6.054;2022-09-29T07:51:53;6.43;;;5.20;;
41627;SDS011;27321;50.816;6.054;2022-09-29T07:54:54;8.00;;;5.43;;
41627;SDS011;27321;50.816;6.054;2022-09-29T07:57:55;5.47;;;4.63;;
41627;SDS011;27321;50.816;6.054;2022-09-29T08:00:56;6.50;;;4.70;;
41627;SDS011;27321;50.816;6.054;2022-09-29T08:03:57;6.43;;;4.70;;
41627;SDS011;27321;50.816;6.054;2022-09-29T08:06:58;5.60;;;4.00;;
41627;SDS011;27321;50.816;6.054;2022-09-29T08:09:59;5.73;;;4.47;;
41627;SDS011;27321;50.816;6.054;2022-09-29T08:13:00;6.88;;;3.90;;
41627;SDS011;27321;50.816;6.054;2022-09-29T08:16:01;7.27;;;4.77;;
41627;SDS011;27321;50.816;6.054;2022-09-29T08:19:05;5.30;;;3.80;;
41627;SDS011;27321;50.816;6.054;2022-09-29T08:22:06;4.30;;;3.78;;
41627;SDS011;27321;50.816;6.054;2022-09-29T08:25:07;3.27;;;2.97;;
41627;SDS011;27321;50.816;6.054;2022-09-29T08:28:08;4.07;;;3.50;;
41627;SDS011;27321;50.816;6.054;2022-09-29T08:31:11;3.42;;;3.15;;
41627;SDS011;27321;50.816;6.054;2022-09-29T08:34:19;4.73;;;3.20;;
41627;SDS011;27321;50.816;6.054;2022-09-29T08:37:20;5.57;;;3.50;;
41627;SDS011;27321;50.816;6.054;2022-09-29T08:40:21;4.60;;;3.50;;
41627;SDS011;27321;50.816;6.054;2022-09-29T08:43:27;3.95;;;3.00;;
41627;SDS011;27321;50.816;6.054;2022-09-29T08:46:37;6.07;;;3.40;;
41627;SDS011;27321;50.816;6.054;2022-09-29T08:49:52;3.93;;;3.03;;
41627;SDS011;27321;50.816;6.054;2022-09-29T08:53:06;4.13;;;2.90;;
41627;SDS011;27321;50.816;6.054;2022-09-29T08:56:12;2.93;;;2.60;;
41627;SDS011;27321;50.816;6.054;2022-09-29T08:59:16;3.00;;;2.70;;
41627;SDS011;27321;50.816;6.054;2022-09-29T09:16:17;4.63;;;2.90;;
41627;SDS011;27321;50.816;6.054;2022-09-29T09:22:40;3.67;;;2.53;;
41627;SDS011;27321;50.816;6.054;2022-09-29T09:25:58;2.97;;;2.37;;
41627;SDS011;27321;50.816;6.054;2022-09-29T09:29:47;3.37;;;2.30;;
41627;SDS011;27321;50.816;6.054;2022-09-29T09:32:35;3.45;;;2.67;;
41627;SDS011;27321;50.816;6.054;2022-09-29T09:35:51;3.30;;;2.20;;
41627;SDS011;27321;50.816;6.054;2022-09-29T09:39:12;2.23;;;1.83;;
41627;SDS011;27321;50.816;6.054;2022-09-29T09:42:28;3.43;;;2.00;;
41627;SDS011;27321;50.816;6.054;2022-09-29T09:45:35;3.00;;;2.20;;
41627;SDS011;27321;50.816;6.054;2022-09-29T09:52:19;2.17;;;1.87;;
41627;SDS011;27321;50.816;6.054;2022-09-29T09:55:25;1.53;;;1.40;;
41627;SDS011;27321;50.816;6.054;2022-09-29T09:58:29;2.70;;;1.48;;
41627;SDS011;27321;50.816;6.054;2022-09-29T10:01:54;2.63;;;1.60;;
41627;SDS011;27321;50.816;6.054;2022-09-29T10:04:55;2.97;;;1.57;;
41627;SDS011;27321;50.816;6.054;2022-09-29T10:07:56;1.88;;;1.38;;
41627;SDS011;27321;50.816;6.054;2022-09-29T10:10:58;1.45;;;1.25;;
41627;SDS011;27321;50.816;6.054;2022-09-29T10:14:00;2.15;;;1.45;;
41627;SDS011;27321;50.816;6.054;2022-09-29T10:20:14;1.30;;;1.20;;
41627;SDS011;27321;50.816;6.054;2022-09-29T10:23:33;3.20;;;1.50;;
41627;SDS011;27321;50.816;6.054;2022-09-29T10:26:42;1.70;;;1.23;;
41627;SDS011;27321;50.816;6.054;2022-09-29T10:29:46;1.77;;;1.33;;
41627;SDS011;27321;50.816;6.054;2022-09-29T10:32:51;2.47;;;1.50;;
41627;SDS011;27321;50.816;6.054;2022-09-29T10:36:07;3.80;;;1.80;;
41627;SDS011;27321;50.816;6.054;2022-09-29T10:39:10;1.50;;;1.40;;
41627;SDS011;27321;50.816;6.054;2022-09-29T10:42:47;1.93;;;1.40;;
41627;SDS011;27321;50.816;6.054;2022-09-29T10:45:50;3.00;;;1.60;;
41627;SDS011;27321;50.816;6.054;2022-09-29T10:49:07;2.53;;;1.50;;
41627;SDS011;27321;50.816;6.054;2022-09-29T10:52:17;2.03;;;1.10;;
41627;SDS011;27321;50.816;6.054;2022-09-29T10:55:25;1.97;;;0.90;;
41627;SDS011;27321;50.816;6.054;2022-09-29T10:58:33;1.27;;;1.00;;
41627;SDS011;27321;50.816;6.054;2022-09-29T11:01:42;2.67;;;1.60;;
41627;SDS011;27321;50.816;6.054;2022-09-29T11:04:51;3.93;;;1.30;;
41627;SDS011;27321;50.816;6.054;2022-09-29T11:07:55;2.27;;;1.40;;
41627;SDS011;27321;50.816;6.054;2022-09-29T11:17:36;1.70;;;1.60;;
41627;SDS011;27321;50.816;6.054;2022-09-29T11:20:38;2.35;;;1.00;;
41627;SDS011;27321;50.816;6.054;2022-09-29T11:23:44;5.03;;;1.60;;
41627;SDS011;27321;50.816;6.054;2022-09-29T11:26:58;3.83;;;1.10;;
41627;SDS011;27321;50.816;6.054;2022-09-29T11:37:59;1.92;;;0.95;;
41627;SDS011;27321;50.816;6.054;2022-09-29T11:45:00;1.02;;;0.70;;
41627;SDS011;27321;50.816;6.054;2022-09-29T11:48:16;0.98;;;0.65;;
41627;SDS011;27321;50.816;6.054;2022-09-29T11:58:57;0.85;;;0.68;;
41627;SDS011;27321;50.816;6.054;2022-09-29T12:05:39;1.23;;;0.80;;
41627;SDS011;27321;50.816;6.054;2022-09-29T12:09:15;1.13;;;0.80;;
41627;SDS011;27321;50.816;6.054;2022-09-29T12:19:19;1.75;;;0.70;;
41627;SDS011;27321;50.816;6.054;2022-09-29T12:22:22;1.00;;;0.40;;
41627;SDS011;27321;50.816;6.054;2022-09-29T12:25:24;0.88;;;0.73;;
41627;SDS011;27321;50.816;6.054;2022-09-29T12:31:46;0.52;;;0.50;;
41627;SDS011;27321;50.816;6.054;2022-09-29T12:41:16;1.08;;;0.88;;
41627;SDS011;27321;50.816;6.054;2022-09-29T12:44:33;1.88;;;0.93;;
41627;SDS011;27321;50.816;6.054;2022-09-29T12:47:46;1.92;;;0.90;;
41627;SDS011;27321;50.816;6.054;2022-09-29T12:57:22;1.67;;;0.98;;
41627;SDS011;27321;50.816;6.054;2022-09-29T13:00:27;3.45;;;1.20;;
41627;SDS011;27321;50.816;6.054;2022-09-29T13:03:58;1.55;;;0.85;;
41627;SDS011;27321;50.816;6.054;2022-09-29T13:24:43;1.65;;;0.90;;
41627;SDS011;27321;50.816;6.054;2022-09-29T13:27:59;0.85;;;0.82;;
41627;SDS011;27321;50.816;6.054;2022-09-29T13:31:04;1.63;;;0.70;;
41627;SDS011;27321;50.816;6.054;2022-09-29T13:34:28;3.45;;;0.75;;
41627;SDS011;27321;50.816;6.054;2022-09-29T13:37:47;0.57;;;0.50;;
41627;SDS011;27321;50.816;6.054;2022-09-29T13:41:14;0.70;;;0.60;;
41627;SDS011;27321;50.816;6.054;2022-09-29T13:44:25;2.88;;;0.60;;
41627;SDS011;27321;50.816;6.054;2022-09-29T13:47:30;2.03;;;1.05;;
41627;SDS011;27321;50.816;6.054;2022-09-29T13:50:53;1.75;;;0.80;;
41627;SDS011;27321;50.816;6.054;2022-09-29T13:54:12;3.10;;;1.20;;
41627;SDS011;27321;50.816;6.054;2022-09-29T13:57:33;2.08;;;0.90;;
41627;SDS011;27321;50.816;6.054;2022-09-29T14:00:35;2.15;;;0.98;;
41627;SDS011;27321;50.816;6.054;2022-09-29T14:03:44;2.17;;;0.70;;
41627;SDS011;27321;50.816;6.054;2022-09-29T14:06:46;1.25;;;0.75;;
41627;SDS011;27321;50.816;6.054;2022-09-29T14:09:47;0.30;;;0.30;;
41627;SDS011;27321;50.816;6.054;2022-09-29T14:12:55;1.02;;;0.70;;
41627;SDS011;27321;50.816;6.054;2022-09-29T14:20:19;1.48;;;0.60;;
41627;SDS011;27321;50.816;6.054;2022-09-29T14:26:50;1.50;;;0.98;;
41627;SDS011;27321;50.816;6.054;2022-09-29T14:33:12;1.70;;;0.60;;
41627;SDS011;27321;50.816;6.054;2022-09-29T14:36:20;1.65;;;1.00;;
41627;SDS011;27321;50.816;6.054;2022-09-29T14:39:25;4.32;;;1.00;;
41627;SDS011;27321;50.816;6.054;2022-09-29T14:42:28;2.58;;;0.80;;
41627;SDS011;27321;50.816;6.054;2022-09-29T14:45:31;1.05;;;0.60;;
41627;SDS011;27321;50.816;6.054;2022-09-29T14:53:42;2.05;;;1.05;;
41627;SDS011;27321;50.816;6.054;2022-09-29T15:00:59;1.92;;;1.40;;
41627;SDS011;27321;50.816;6.054;2022-09-29T15:04:17;3.53;;;1.50;;
41627;SDS011;27321;50.816;6.054;2022-09-29T15:07:19;1.83;;;1.30;;
41627;SDS011;27321;50.816;6.054;2022-09-29T15:10:25;2.00;;;1.50;;
41627;SDS011;27321;50.816;6.054;2022-09-29T15:13:39;2.30;;;1.40;;
41627;SDS011;27321;50.816;6.054;2022-09-29T15:20:26;1.90;;;1.23;;
41627;SDS011;27321;50.816;6.054;2022-09-29T15:23:41;2.13;;;1.20;;
41627;SDS011;27321;50.816;6.054;2022-09-29T15:27:12;2.75;;;1.10;;
41627;SDS011;27321;50.816;6.054;2022-09-29T15:30:15;4.65;;;1.85;;
41627;SDS011;27321;50.816;6.054;2022-09-29T15:33:29;2.25;;;1.60;;
41627;SDS011;27321;50.816;6.054;2022-09-29T15:36:36;1.40;;;1.10;;
41627;SDS011;27321;50.816;6.054;2022-09-29T15:39:43;2.30;;;1.30;;
41627;SDS011;27321;50.816;6.054;2022-09-29T15:42:51;1.67;;;1.10;;
41627;SDS011;27321;50.816;6.054;2022-09-29T15:45:55;1.67;;;1.08;;
41627;SDS011;27321;50.816;6.054;2022-09-29T15:49:09;2.58;;;1.08;;
41627;SDS011;27321;50.816;6.054;2022-09-29T15:52:15;1.17;;;1.08;;
41627;SDS011;27321;50.816;6.054;2022-09-29T15:55:19;2.83;;;1.30;;
41627;SDS011;27321;50.816;6.054;2022-09-29T16:01:36;3.50;;;1.10;;
41627;SDS011;27321;50.816;6.054;2022-09-29T16:04:37;2.28;;;1.40;;
41627;SDS011;27321;50.816;6.054;2022-09-29T16:07:49;2.78;;;1.33;;
41627;SDS011;27321;50.816;6.054;2022-09-29T16:10:59;1.80;;;1.38;;
41627;SDS011;27321;50.816;6.054;2022-09-29T16:17:11;0.80;;;0.80;;
41627;SDS011;27321;50.816;6.054;2022-09-29T16:23:43;2.00;;;0.70;;
41627;SDS011;27321;50.816;6.054;2022-09-29T16:27:36;1.25;;;0.70;;
41627;SDS011;27321;50.816;6.054;2022-09-29T16:30:44;1.02;;;0.80;;
41627;SDS011;27321;50.816;6.054;2022-09-29T16:37:21;0.80;;;0.80;;
41627;SDS011;27321;50.816;6.054;2022-09-29T16:40:22;0.80;;;0.80;;
41627;SDS011;27321;50.816;6.054;2022-09-29T16:43:28;0.93;;;0.80;;
41627;SDS011;27321;50.816;6.054;2022-09-29T16:46:30;1.30;;;0.73;;
41627;SDS011;27321;50.816;6.054;2022-09-29T16:49:34;2.35;;;0.90;;
41627;SDS011;27321;50.816;6.054;2022-09-29T16:52:44;1.00;;;0.80;;
41627;SDS011;27321;50.816;6.054;2022-09-29T16:55:54;2.08;;;0.73;;
41627;SDS011;27321;50.816;6.054;2022-09-29T16:59:18;1.20;;;0.82;;
41627;SDS011;27321;50.816;6.054;2022-09-29T17:02:22;1.60;;;0.80;;
41627;SDS011;27321;50.816;6.054;2022-09-29T17:05:25;0.73;;;0.65;;
41627;SDS011;27321;50.816;6.054;2022-09-29T17:08:27;0.98;;;0.80;;
41627;SDS011;27321;50.816;6.054;2022-09-29T17:11:31;0.98;;;0.80;;
41627;SDS011;27321;50.816;6.054;2022-09-29T17:14:32;1.13;;;1.02;;
41627;SDS011;27321;50.816;6.054;2022-09-29T17:17:33;1.77;;;1.00;;
41627;SDS011;27321;50.816;6.054;2022-09-29T17:23:35;1.63;;;1.27;;
41627;SDS011;27321;50.816;6.054;2022-09-29T17:26:37;2.97;;;1.30;;
41627;SDS011;27321;50.816;6.054;2022-09-29T17:29:59;2.03;;;1.20;;
41627;SDS011;27321;50.816;6.054;2022-09-29T17:33:00;1.65;;;1.42;;
41627;SDS011;27321;50.816;6.054;2022-09-29T17:36:02;1.43;;;1.10;;
41627;SDS011;27321;50.816;6.054;2022-09-29T17:39:03;3.00;;;1.48;;
41627;SDS011;27321;50.816;6.054;2022-09-29T17:42:05;1.65;;;1.25;;
41627;SDS011;27321;50.816;6.054;2022-09-29T17:45:06;2.38;;;1.30;;
41627;SDS011;27321;50.816;6.054;2022-09-29T17:48:08;2.90;;;1.70;;
41627;SDS011;27321;50.816;6.054;2022-09-29T17:54:17;2.93;;;1.50;;
41627;SDS011;27321;50.816;6.054;2022-09-29T17:57:24;2.93;;;1.43;;
41627;SDS011;27321;50.816;6.054;2022-09-29T18:00:32;1.60;;;1.50;;
41627;SDS011;27321;50.816;6.054;2022-09-29T18:03:38;1.80;;;1.40;;
41627;SDS011;27321;50.816;6.054;2022-09-29T18:06:39;2.70;;;1.80;;
41627;SDS011;27321;50.816;6.054;2022-09-29T18:09:41;2.23;;;1.50;;
41627;SDS011;27321;50.816;6.054;2022-09-29T18:12:43;2.20;;;1.63;;
41627;SDS011;27321;50.816;6.054;2022-09-29T18:15:47;2.77;;;1.50;;
41627;SDS011;27321;50.816;6.054;2022-09-29T18:18:48;2.97;;;1.70;;
41627;SDS011;27321;50.816;6.054;2022-09-29T18:21:51;1.90;;;1.70;;
41627;SDS011;27321;50.816;6.054;2022-09-29T18:24:52;2.67;;;1.53;;
41627;SDS011;27321;50.816;6.054;2022-09-29T18:27:53;3.38;;;2.00;;
41627;SDS011;27321;50.816;6.054;2022-09-29T18:30:56;1.98;;;1.50;;
41627;SDS011;27321;50.816;6.054;2022-09-29T18:34:08;2.20;;;1.70;;
41627;SDS011;27321;50.816;6.054;2022-09-29T18:37:15;1.83;;;1.70;;
41627;SDS011;27321;50.816;6.054;2022-09-29T18:40:20;2.45;;;1.90;;
41627;SDS011;27321;50.816;6.054;2022-09-29T18:43:22;1.83;;;1.70;;
41627;SDS011;27321;50.816;6.054;2022-09-29T18:46:27;3.10;;;1.77;;
41627;SDS011;27321;50.816;6.054;2022-09-29T18:49:30;2.73;;;2.00;;
41627;SDS011;27321;50.816;6.054;2022-09-29T18:52:31;2.50;;;2.00;;
41627;SDS011;27321;50.816;6.054;2022-09-29T18:55:33;2.45;;;1.80;;
41627;SDS011;27321;50.816;6.054;2022-09-29T18:58:35;1.85;;;1.75;;
41627;SDS011;27321;50.816;6.054;2022-09-29T19:01:36;2.58;;;1.88;;
41627;SDS011;27321;50.816;6.054;2022-09-29T19:04:38;2.43;;;2.07;;
41627;SDS011;27321;50.816;6.054;2022-09-29T19:07:39;1.75;;;1.65;;
41627;SDS011;27321;50.816;6.054;2022-09-29T19:11:02;3.50;;;2.00;;
41627;SDS011;27321;50.816;6.054;2022-09-29T19:14:03;2.60;;;2.27;;
41627;SDS011;27321;50.816;6.054;2022-09-29T19:17:05;3.28;;;1.90;;
41627;SDS011;27321;50.816;6.054;2022-09-29T19:20:06;3.00;;;1.93;;
41627;SDS011;27321;50.816;6.054;2022-09-29T19:23:07;2.40;;;2.20;;
41627;SDS011;27321;50.816;6.054;2022-09-29T19:26:10;3.00;;;2.47;;
41627;SDS011;27321;50.816;6.054;2022-09-29T19:29:15;3.67;;;2.70;;
41627;SDS011;27321;50.816;6.054;2022-09-29T19:32:16;4.50;;;2.60;;
41627;SDS011;27321;50.816;6.054;2022-09-29T19:35:18;3.25;;;2.60;;
41627;SDS011;27321;50.816;6.054;2022-09-29T19:38:22;4.17;;;2.67;;
41627;SDS011;27321;50.816;6.054;2022-09-29T19:41:24;2.97;;;2.33;;
41627;SDS011;27321;50.816;6.054;2022-09-29T19:44:25;2.83;;;2.30;;
41627;SDS011;27321;50.816;6.054;2022-09-29T19:47:27;2.47;;;2.27;;
41627;SDS011;27321;50.816;6.054;2022-09-29T19:50:28;2.60;;;2.40;;
41627;SDS011;27321;50.816;6.054;2022-09-29T19:53:48;2.87;;;2.57;;
41627;SDS011;27321;50.816;6.054;2022-09-29T19:57:10;3.53;;;2.47;;
41627;SDS011;27321;50.816;6.054;2022-09-29T20:00:17;3.00;;;2.70;;
41627;SDS011;27321;50.816;6.054;2022-09-29T20:03:20;5.17;;;2.90;;
41627;SDS011;27321;50.816;6.054;2022-09-29T20:06:22;2.67;;;2.47;;
41627;SDS011;27321;50.816;6.054;2022-09-29T20:09:23;3.92;;;2.80;;
41627;SDS011;27321;50.816;6.054;2022-09-29T20:12:24;3.78;;;2.72;;
41627;SDS011;27321;50.816;6.054;2022-09-29T20:15:25;2.60;;;2.37;;
41627;SDS011;27321;50.816;6.054;2022-09-29T20:18:27;2.53;;;2.23;;
41627;SDS011;27321;50.816;6.054;2022-09-29T20:21:28;4.70;;;2.70;;
41627;SDS011;27321;50.816;6.054;2022-09-29T20:24:30;3.77;;;2.30;;
41627;SDS011;27321;50.816;6.054;2022-09-29T20:27:31;4.23;;;2.97;;
41627;SDS011;27321;50.816;6.054;2022-09-29T20:30:32;4.20;;;2.72;;
41627;SDS011;27321;50.816;6.054;2022-09-29T20:33:34;3.88;;;3.20;;
41627;SDS011;27321;50.816;6.054;2022-09-29T20:39:37;4.83;;;3.67;;
41627;SDS011;27321;50.816;6.054;2022-09-29T20:42:38;6.95;;;4.40;;
41627;SDS011;27321;50.816;6.054;2022-09-29T20:45:46;8.20;;;4.90;;
41627;SDS011;27321;50.816;6.054;2022-09-29T20:48:54;6.50;;;4.43;;
41627;SDS011;27321;50.816;6.054;2022-09-29T20:52:03;5.87;;;4.00;;
41627;SDS011;27321;50.816;6.054;2022-09-29T20:55:05;5.10;;;3.43;;
41627;SDS011;27321;50.816;6.054;2022-09-29T20:58:09;5.47;;;3.43;;
41627;SDS011;27321;50.816;6.054;2022-09-29T21:01:21;6.43;;;3.40;;
41627;SDS011;27321;50.816;6.054;2022-09-29T21:04:25;5.47;;;3.20;;
41627;SDS011;27321;50.816;6.054;2022-09-29T21:07:26;3.90;;;3.20;;
41627;SDS011;27321;50.816;6.054;2022-09-29T21:10:36;3.43;;;3.00;;
41627;SDS011;27321;50.816;6.054;2022-09-29T21:13:37;5.65;;;3.17;;
41627;SDS011;27321;50.816;6.054;2022-09-29T21:16:38;3.97;;;3.08;;
41627;SDS011;27321;50.816;6.054;2022-09-29T21:19:44;4.30;;;2.90;;
41627;SDS011;27321;50.816;6.054;2022-09-29T21:22:45;3.93;;;2.87;;
41627;SDS011;27321;50.816;6.054;2022-09-29T21:25:46;4.43;;;3.13;;
41627;SDS011;27321;50.816;6.054;2022-09-29T21:28:48;4.77;;;3.50;;
41627;SDS011;27321;50.816;6.054;2022-09-29T21:31:51;5.13;;;3.80;;
41627;SDS011;27321;50.816;6.054;2022-09-29T21:34:52;5.03;;;3.30;;
41627;SDS011;27321;50.816;6.054;2022-09-29T21:37:53;3.73;;;3.37;;
41627;SDS011;27321;50.816;6.054;2022-09-29T21:41:00;3.47;;;2.70;;
41627;SDS011;27321;50.816;6.054;2022-09-29T21:44:16;3.07;;;2.43;;
41627;SDS011;27321;50.816;6.054;2022-09-29T21:47:20;3.20;;;2.37;;